sensor_id;sensor_type;location;lat;lon;timestamp;P1;durP1;ratioP1;P2;durP2;ratioP2
6438;SDS011;3252;52.540;13.290;2022-09-11T00:00:49;15.10;;;7.50;;
6438;SDS011;3252;52.540;13.290;2022-09-11T00:02:52;11.80;;;6.97;;
6438;SDS011;3252;52.540;13.290;2022-09-11T00:04:56;14.70;;;7.03;;
6438;SDS011;3252;52.540;13.290;2022-09-11T00:06:58;23.70;;;11.37;;
6438;SDS011;3252;52.540;13.290;2022-09-11T00:09:01;15.73;;;7.63;;
6438;SDS011;3252;52.540;13.290;2022-09-11T00:11:06;10.10;;;5.53;;
6438;SDS011;3252;52.540;13.290;2022-09-11T00:13:10;11.50;;;6.10;;
6438;SDS011;3252;52.540;13.290;2022-09-11T00:15:14;10.13;;;6.07;;
6438;SDS011;3252;52.540;13.290;2022-09-11T00:17:16;11.83;;;6.30;;
6438;SDS011;3252;52.540;13.290;2022-09-11T00:19:18;10.93;;;6.40;;
6438;SDS011;3252;52.540;13.290;2022-09-11T00:21:22;12.13;;;6.27;;
6438;SDS011;3252;52.540;13.290;2022-09-11T00:23:25;12.27;;;6.20;;
6438;SDS011;3252;52.540;13.290;2022-09-11T00:25:28;10.83;;;6.37;;
6438;SDS011;3252;52.540;13.290;2022-09-11T00:27:34;10.83;;;6.00;;
6438;SDS011;3252;52.540;13.290;2022-09-11T00:29:36;10.53;;;5.77;;
6438;SDS011;3252;52.540;13.290;2022-09-11T00:31:38;14.27;;;5.93;;
6438;SDS011;3252;52.540;13.290;2022-09-11T00:33:41;13.57;;;6.43;;
6438;SDS011;3252;52.540;13.290;2022-09-11T00:35:52;9.53;;;5.37;;
6438;SDS011;3252;52.540;13.290;2022-09-11T00:37:58;12.03;;;6.40;;
6438;SDS011;3252;52.540;13.290;2022-09-11T00:40:01;12.43;;;6.30;;
6438;SDS011;3252;52.540;13.290;2022-09-11T00:42:03;14.07;;;6.13;;
6438;SDS011;3252;52.540;13.290;2022-09-11T00:44:06;12.43;;;5.83;;
6438;SDS011;3252;52.540;13.290;2022-09-11T00:46:31;11.37;;;6.23;;
6438;SDS011;3252;52.540;13.290;2022-09-11T00:48:37;14.77;;;6.37;;
6438;SDS011;3252;52.540;13.290;2022-09-11T00:50:40;14.63;;;5.97;;
6438;SDS011;3252;52.540;13.290;2022-09-11T00:52:47;13.87;;;6.33;;
6438;SDS011;3252;52.540;13.290;2022-09-11T00:54:54;10.47;;;6.33;;
6438;SDS011;3252;52.540;13.290;2022-09-11T00:57:00;11.67;;;6.13;;
6438;SDS011;3252;52.540;13.290;2022-09-11T00:59:04;10.40;;;5.57;;
6438;SDS011;3252;52.540;13.290;2022-09-11T01:01:07;8.50;;;5.30;;
6438;SDS011;3252;52.540;13.290;2022-09-11T01:03:09;10.10;;;5.20;;
6438;SDS011;3252;52.540;13.290;2022-09-11T01:05:15;11.57;;;5.00;;
6438;SDS011;3252;52.540;13.290;2022-09-11T01:07:18;11.87;;;5.43;;
6438;SDS011;3252;52.540;13.290;2022-09-11T01:09:23;7.93;;;4.70;;
6438;SDS011;3252;52.540;13.290;2022-09-11T01:11:38;8.27;;;4.80;;
6438;SDS011;3252;52.540;13.290;2022-09-11T01:13:50;8.47;;;4.60;;
6438;SDS011;3252;52.540;13.290;2022-09-11T01:15:58;10.87;;;4.67;;
6438;SDS011;3252;52.540;13.290;2022-09-11T01:18:08;10.33;;;5.23;;
6438;SDS011;3252;52.540;13.290;2022-09-11T01:20:20;10.17;;;5.20;;
6438;SDS011;3252;52.540;13.290;2022-09-11T01:22:45;9.17;;;4.90;;
6438;SDS011;3252;52.540;13.290;2022-09-11T01:25:19;10.40;;;4.87;;
6438;SDS011;3252;52.540;13.290;2022-09-11T01:27:33;8.93;;;4.83;;
6438;SDS011;3252;52.540;13.290;2022-09-11T01:29:46;8.37;;;4.80;;
6438;SDS011;3252;52.540;13.290;2022-09-11T01:31:53;8.23;;;5.23;;
6438;SDS011;3252;52.540;13.290;2022-09-11T01:34:00;7.67;;;5.07;;
6438;SDS011;3252;52.540;13.290;2022-09-11T01:36:09;10.47;;;5.47;;
6438;SDS011;3252;52.540;13.290;2022-09-11T01:38:20;9.63;;;5.03;;
6438;SDS011;3252;52.540;13.290;2022-09-11T01:40:28;7.00;;;4.57;;
6438;SDS011;3252;52.540;13.290;2022-09-11T01:42:37;16.47;;;5.27;;
6438;SDS011;3252;52.540;13.290;2022-09-11T01:44:46;8.57;;;5.20;;
6438;SDS011;3252;52.540;13.290;2022-09-11T01:46:51;11.83;;;5.43;;
6438;SDS011;3252;52.540;13.290;2022-09-11T01:48:56;9.20;;;5.17;;
6438;SDS011;3252;52.540;13.290;2022-09-11T01:51:03;8.60;;;5.40;;
6438;SDS011;3252;52.540;13.290;2022-09-11T01:53:07;12.63;;;5.30;;
6438;SDS011;3252;52.540;13.290;2022-09-11T01:55:15;9.10;;;5.80;;
6438;SDS011;3252;52.540;13.290;2022-09-11T01:57:23;7.30;;;5.27;;
6438;SDS011;3252;52.540;13.290;2022-09-11T01:59:34;14.07;;;6.33;;
6438;SDS011;3252;52.540;13.290;2022-09-11T02:01:42;9.03;;;5.50;;
6438;SDS011;3252;52.540;13.290;2022-09-11T02:03:51;11.30;;;5.20;;
6438;SDS011;3252;52.540;13.290;2022-09-11T02:05:58;7.87;;;5.20;;
6438;SDS011;3252;52.540;13.290;2022-09-11T02:08:04;9.30;;;5.43;;
6438;SDS011;3252;52.540;13.290;2022-09-11T02:10:14;7.87;;;4.47;;
6438;SDS011;3252;52.540;13.290;2022-09-11T02:12:21;9.63;;;4.10;;
6438;SDS011;3252;52.540;13.290;2022-09-11T02:14:28;6.07;;;4.33;;
6438;SDS011;3252;52.540;13.290;2022-09-11T02:16:39;8.80;;;4.23;;
6438;SDS011;3252;52.540;13.290;2022-09-11T02:18:50;9.27;;;4.10;;
6438;SDS011;3252;52.540;13.290;2022-09-11T02:20:58;8.50;;;3.97;;
6438;SDS011;3252;52.540;13.290;2022-09-11T02:23:01;6.47;;;3.70;;
6438;SDS011;3252;52.540;13.290;2022-09-11T02:25:03;6.00;;;4.20;;
6438;SDS011;3252;52.540;13.290;2022-09-11T02:27:06;5.13;;;3.63;;
6438;SDS011;3252;52.540;13.290;2022-09-11T02:29:11;5.90;;;3.90;;
6438;SDS011;3252;52.540;13.290;2022-09-11T02:31:17;7.50;;;4.23;;
6438;SDS011;3252;52.540;13.290;2022-09-11T02:33:27;7.00;;;4.03;;
6438;SDS011;3252;52.540;13.290;2022-09-11T02:35:32;6.57;;;4.43;;
6438;SDS011;3252;52.540;13.290;2022-09-11T02:37:44;6.53;;;4.00;;
6438;SDS011;3252;52.540;13.290;2022-09-11T02:40:01;6.47;;;3.83;;
6438;SDS011;3252;52.540;13.290;2022-09-11T02:42:22;6.80;;;4.40;;
6438;SDS011;3252;52.540;13.290;2022-09-11T02:44:34;12.20;;;4.23;;
6438;SDS011;3252;52.540;13.290;2022-09-11T02:46:43;7.03;;;4.20;;
6438;SDS011;3252;52.540;13.290;2022-09-11T02:48:58;6.77;;;4.10;;
6438;SDS011;3252;52.540;13.290;2022-09-11T02:51:12;7.17;;;4.60;;
6438;SDS011;3252;52.540;13.290;2022-09-11T02:53:21;7.17;;;4.40;;
6438;SDS011;3252;52.540;13.290;2022-09-11T02:55:31;7.67;;;4.63;;
6438;SDS011;3252;52.540;13.290;2022-09-11T02:57:43;7.70;;;4.30;;
6438;SDS011;3252;52.540;13.290;2022-09-11T02:59:52;7.47;;;4.00;;
6438;SDS011;3252;52.540;13.290;2022-09-11T03:01:56;8.13;;;5.00;;
6438;SDS011;3252;52.540;13.290;2022-09-11T03:04:03;8.10;;;4.60;;
6438;SDS011;3252;52.540;13.290;2022-09-11T03:06:05;6.10;;;4.53;;
6438;SDS011;3252;52.540;13.290;2022-09-11T03:08:10;7.83;;;4.40;;
6438;SDS011;3252;52.540;13.290;2022-09-11T03:10:16;10.00;;;4.10;;
6438;SDS011;3252;52.540;13.290;2022-09-11T03:12:18;6.73;;;4.20;;
6438;SDS011;3252;52.540;13.290;2022-09-11T03:14:22;7.87;;;4.63;;
6438;SDS011;3252;52.540;13.290;2022-09-11T03:16:24;5.70;;;4.43;;
6438;SDS011;3252;52.540;13.290;2022-09-11T03:18:26;6.63;;;4.37;;
6438;SDS011;3252;52.540;13.290;2022-09-11T03:20:29;6.63;;;5.30;;
6438;SDS011;3252;52.540;13.290;2022-09-11T03:22:33;13.93;;;7.30;;
6438;SDS011;3252;52.540;13.290;2022-09-11T03:24:36;13.40;;;7.73;;
6438;SDS011;3252;52.540;13.290;2022-09-11T03:26:39;13.23;;;8.10;;
6438;SDS011;3252;52.540;13.290;2022-09-11T03:28:41;13.30;;;9.30;;
6438;SDS011;3252;52.540;13.290;2022-09-11T03:30:44;11.73;;;8.90;;
6438;SDS011;3252;52.540;13.290;2022-09-11T03:32:46;15.90;;;9.63;;
6438;SDS011;3252;52.540;13.290;2022-09-11T03:34:48;14.17;;;9.60;;
6438;SDS011;3252;52.540;13.290;2022-09-11T03:36:51;13.77;;;10.23;;
6438;SDS011;3252;52.540;13.290;2022-09-11T03:38:53;14.47;;;9.80;;
6438;SDS011;3252;52.540;13.290;2022-09-11T03:40:56;14.67;;;10.20;;
6438;SDS011;3252;52.540;13.290;2022-09-11T03:43:01;14.33;;;10.30;;
6438;SDS011;3252;52.540;13.290;2022-09-11T03:45:07;12.27;;;10.67;;
6438;SDS011;3252;52.540;13.290;2022-09-11T03:47:10;12.03;;;10.73;;
6438;SDS011;3252;52.540;13.290;2022-09-11T03:49:12;12.67;;;10.67;;
6438;SDS011;3252;52.540;13.290;2022-09-11T03:51:15;12.93;;;11.40;;
6438;SDS011;3252;52.540;13.290;2022-09-11T03:53:19;12.87;;;11.20;;
6438;SDS011;3252;52.540;13.290;2022-09-11T03:55:21;13.23;;;11.57;;
6438;SDS011;3252;52.540;13.290;2022-09-11T03:57:23;15.23;;;11.93;;
6438;SDS011;3252;52.540;13.290;2022-09-11T03:59:27;14.57;;;11.33;;
6438;SDS011;3252;52.540;13.290;2022-09-11T04:01:28;12.73;;;11.00;;
6438;SDS011;3252;52.540;13.290;2022-09-11T04:03:30;16.07;;;11.83;;
6438;SDS011;3252;52.540;13.290;2022-09-11T04:05:32;15.57;;;12.27;;
6438;SDS011;3252;52.540;13.290;2022-09-11T04:07:35;16.70;;;11.63;;
6438;SDS011;3252;52.540;13.290;2022-09-11T04:09:40;15.27;;;12.43;;
6438;SDS011;3252;52.540;13.290;2022-09-11T04:11:44;17.90;;;12.63;;
6438;SDS011;3252;52.540;13.290;2022-09-11T04:13:57;18.90;;;13.37;;
6438;SDS011;3252;52.540;13.290;2022-09-11T04:16:00;20.30;;;13.60;;
6438;SDS011;3252;52.540;13.290;2022-09-11T04:18:06;20.30;;;13.60;;
6438;SDS011;3252;52.540;13.290;2022-09-11T04:20:09;17.53;;;13.17;;
6438;SDS011;3252;52.540;13.290;2022-09-11T04:22:12;18.53;;;13.13;;
6438;SDS011;3252;52.540;13.290;2022-09-11T04:24:14;22.60;;;14.03;;
6438;SDS011;3252;52.540;13.290;2022-09-11T04:26:21;20.17;;;14.30;;
6438;SDS011;3252;52.540;13.290;2022-09-11T04:28:29;24.90;;;14.60;;
6438;SDS011;3252;52.540;13.290;2022-09-11T04:30:33;21.60;;;14.17;;
6438;SDS011;3252;52.540;13.290;2022-09-11T04:32:38;21.83;;;14.87;;
6438;SDS011;3252;52.540;13.290;2022-09-11T04:34:40;23.20;;;15.50;;
6438;SDS011;3252;52.540;13.290;2022-09-11T04:36:44;24.47;;;15.27;;
6438;SDS011;3252;52.540;13.290;2022-09-11T04:38:53;24.27;;;15.30;;
6438;SDS011;3252;52.540;13.290;2022-09-11T04:40:58;24.87;;;15.43;;
6438;SDS011;3252;52.540;13.290;2022-09-11T04:43:02;21.37;;;15.07;;
6438;SDS011;3252;52.540;13.290;2022-09-11T04:45:07;23.33;;;15.60;;
6438;SDS011;3252;52.540;13.290;2022-09-11T04:47:10;25.00;;;16.13;;
6438;SDS011;3252;52.540;13.290;2022-09-11T04:49:13;23.93;;;16.07;;
6438;SDS011;3252;52.540;13.290;2022-09-11T04:51:16;22.87;;;15.43;;
6438;SDS011;3252;52.540;13.290;2022-09-11T04:53:21;26.20;;;16.83;;
6438;SDS011;3252;52.540;13.290;2022-09-11T04:55:24;23.83;;;16.10;;
6438;SDS011;3252;52.540;13.290;2022-09-11T04:57:27;29.37;;;16.90;;
6438;SDS011;3252;52.540;13.290;2022-09-11T04:59:31;28.60;;;18.37;;
6438;SDS011;3252;52.540;13.290;2022-09-11T05:01:42;24.93;;;16.57;;
6438;SDS011;3252;52.540;13.290;2022-09-11T05:03:45;27.83;;;16.50;;
6438;SDS011;3252;52.540;13.290;2022-09-11T05:05:47;25.70;;;17.13;;
6438;SDS011;3252;52.540;13.290;2022-09-11T05:07:49;27.00;;;18.27;;
6438;SDS011;3252;52.540;13.290;2022-09-11T05:09:51;26.90;;;17.73;;
6438;SDS011;3252;52.540;13.290;2022-09-11T05:11:53;28.33;;;17.87;;
6438;SDS011;3252;52.540;13.290;2022-09-11T05:13:57;25.67;;;16.93;;
6438;SDS011;3252;52.540;13.290;2022-09-11T05:16:03;31.23;;;18.33;;
6438;SDS011;3252;52.540;13.290;2022-09-11T05:18:07;27.67;;;18.87;;
6438;SDS011;3252;52.540;13.290;2022-09-11T05:20:10;25.90;;;17.23;;
6438;SDS011;3252;52.540;13.290;2022-09-11T05:22:12;30.30;;;18.93;;
6438;SDS011;3252;52.540;13.290;2022-09-11T05:24:19;31.37;;;19.40;;
6438;SDS011;3252;52.540;13.290;2022-09-11T05:26:22;30.93;;;19.63;;
6438;SDS011;3252;52.540;13.290;2022-09-11T05:28:27;31.07;;;20.33;;
6438;SDS011;3252;52.540;13.290;2022-09-11T05:30:31;36.17;;;21.67;;
6438;SDS011;3252;52.540;13.290;2022-09-11T05:32:34;34.80;;;20.40;;
6438;SDS011;3252;52.540;13.290;2022-09-11T05:34:36;35.73;;;20.83;;
6438;SDS011;3252;52.540;13.290;2022-09-11T05:36:40;33.70;;;20.50;;
6438;SDS011;3252;52.540;13.290;2022-09-11T05:38:42;38.70;;;21.97;;
6438;SDS011;3252;52.540;13.290;2022-09-11T05:40:45;38.07;;;22.50;;
6438;SDS011;3252;52.540;13.290;2022-09-11T05:42:48;38.63;;;23.17;;
6438;SDS011;3252;52.540;13.290;2022-09-11T05:44:52;37.53;;;22.40;;
6438;SDS011;3252;52.540;13.290;2022-09-11T05:46:55;37.90;;;23.33;;
6438;SDS011;3252;52.540;13.290;2022-09-11T05:48:59;35.80;;;22.20;;
6438;SDS011;3252;52.540;13.290;2022-09-11T05:51:02;39.17;;;23.67;;
6438;SDS011;3252;52.540;13.290;2022-09-11T05:53:06;36.87;;;22.80;;
6438;SDS011;3252;52.540;13.290;2022-09-11T05:55:09;36.77;;;22.50;;
6438;SDS011;3252;52.540;13.290;2022-09-11T05:57:11;33.87;;;22.40;;
6438;SDS011;3252;52.540;13.290;2022-09-11T05:59:13;38.33;;;23.43;;
6438;SDS011;3252;52.540;13.290;2022-09-11T06:01:17;36.03;;;23.10;;
6438;SDS011;3252;52.540;13.290;2022-09-11T06:03:26;37.33;;;23.30;;
6438;SDS011;3252;52.540;13.290;2022-09-11T06:05:34;37.53;;;22.83;;
6438;SDS011;3252;52.540;13.290;2022-09-11T06:07:36;35.03;;;21.40;;
6438;SDS011;3252;52.540;13.290;2022-09-11T06:09:38;41.63;;;24.93;;
6438;SDS011;3252;52.540;13.290;2022-09-11T06:11:40;32.80;;;21.23;;
6438;SDS011;3252;52.540;13.290;2022-09-11T06:13:42;34.27;;;21.27;;
6438;SDS011;3252;52.540;13.290;2022-09-11T06:15:47;36.00;;;23.27;;
6438;SDS011;3252;52.540;13.290;2022-09-11T06:17:49;36.63;;;23.97;;
6438;SDS011;3252;52.540;13.290;2022-09-11T06:19:51;32.67;;;22.20;;
6438;SDS011;3252;52.540;13.290;2022-09-11T06:21:55;36.63;;;21.60;;
6438;SDS011;3252;52.540;13.290;2022-09-11T06:24:10;31.17;;;20.30;;
6438;SDS011;3252;52.540;13.290;2022-09-11T06:26:13;30.77;;;20.20;;
6438;SDS011;3252;52.540;13.290;2022-09-11T06:28:19;33.40;;;21.73;;
6438;SDS011;3252;52.540;13.290;2022-09-11T06:30:26;32.23;;;19.73;;
6438;SDS011;3252;52.540;13.290;2022-09-11T06:32:29;32.33;;;20.43;;
6438;SDS011;3252;52.540;13.290;2022-09-11T06:34:31;33.13;;;20.37;;
6438;SDS011;3252;52.540;13.290;2022-09-11T06:36:37;27.73;;;18.60;;
6438;SDS011;3252;52.540;13.290;2022-09-11T06:38:42;30.93;;;19.80;;
6438;SDS011;3252;52.540;13.290;2022-09-11T06:40:47;37.00;;;25.83;;
6438;SDS011;3252;52.540;13.290;2022-09-11T06:42:49;30.30;;;23.10;;
6438;SDS011;3252;52.540;13.290;2022-09-11T06:44:56;32.13;;;20.77;;
6438;SDS011;3252;52.540;13.290;2022-09-11T06:46:58;29.43;;;19.50;;
6438;SDS011;3252;52.540;13.290;2022-09-11T06:49:00;27.63;;;19.03;;
6438;SDS011;3252;52.540;13.290;2022-09-11T06:51:03;27.47;;;18.80;;
6438;SDS011;3252;52.540;13.290;2022-09-11T06:53:07;27.37;;;18.40;;
6438;SDS011;3252;52.540;13.290;2022-09-11T06:55:13;26.20;;;18.17;;
6438;SDS011;3252;52.540;13.290;2022-09-11T06:57:24;23.80;;;17.10;;
6438;SDS011;3252;52.540;13.290;2022-09-11T06:59:26;23.10;;;16.03;;
6438;SDS011;3252;52.540;13.290;2022-09-11T07:01:29;22.93;;;16.97;;
6438;SDS011;3252;52.540;13.290;2022-09-11T07:03:36;21.70;;;15.30;;
6438;SDS011;3252;52.540;13.290;2022-09-11T07:05:44;19.97;;;14.87;;
6438;SDS011;3252;52.540;13.290;2022-09-11T07:07:47;21.90;;;16.03;;
6438;SDS011;3252;52.540;13.290;2022-09-11T07:09:50;20.70;;;14.97;;
6438;SDS011;3252;52.540;13.290;2022-09-11T07:11:53;20.20;;;14.73;;
6438;SDS011;3252;52.540;13.290;2022-09-11T07:13:55;23.03;;;15.33;;
6438;SDS011;3252;52.540;13.290;2022-09-11T07:16:00;21.77;;;15.30;;
6438;SDS011;3252;52.540;13.290;2022-09-11T07:18:02;21.57;;;14.70;;
6438;SDS011;3252;52.540;13.290;2022-09-11T07:20:05;19.43;;;14.33;;
6438;SDS011;3252;52.540;13.290;2022-09-11T07:22:08;22.17;;;14.40;;
6438;SDS011;3252;52.540;13.290;2022-09-11T07:24:10;19.53;;;14.30;;
6438;SDS011;3252;52.540;13.290;2022-09-11T07:26:15;20.70;;;14.23;;
6438;SDS011;3252;52.540;13.290;2022-09-11T07:28:19;19.53;;;13.87;;
6438;SDS011;3252;52.540;13.290;2022-09-11T07:30:22;20.03;;;13.07;;
6438;SDS011;3252;52.540;13.290;2022-09-11T07:32:28;28.37;;;14.83;;
6438;SDS011;3252;52.540;13.290;2022-09-11T07:34:30;24.97;;;16.97;;
6438;SDS011;3252;52.540;13.290;2022-09-11T07:36:37;28.40;;;16.63;;
6438;SDS011;3252;52.540;13.290;2022-09-11T07:38:42;19.93;;;14.27;;
6438;SDS011;3252;52.540;13.290;2022-09-11T07:40:47;20.77;;;13.87;;
6438;SDS011;3252;52.540;13.290;2022-09-11T07:42:50;23.00;;;14.60;;
6438;SDS011;3252;52.540;13.290;2022-09-11T07:44:55;17.37;;;13.67;;
6438;SDS011;3252;52.540;13.290;2022-09-11T07:46:57;21.93;;;14.57;;
6438;SDS011;3252;52.540;13.290;2022-09-11T07:49:00;21.13;;;14.20;;
6438;SDS011;3252;52.540;13.290;2022-09-11T07:51:04;20.40;;;13.67;;
6438;SDS011;3252;52.540;13.290;2022-09-11T07:53:07;18.87;;;14.40;;
6438;SDS011;3252;52.540;13.290;2022-09-11T07:55:09;20.97;;;14.47;;
6438;SDS011;3252;52.540;13.290;2022-09-11T07:57:11;21.13;;;14.07;;
6438;SDS011;3252;52.540;13.290;2022-09-11T07:59:14;17.90;;;13.03;;
6438;SDS011;3252;52.540;13.290;2022-09-11T08:01:19;22.33;;;13.73;;
6438;SDS011;3252;52.540;13.290;2022-09-11T08:03:23;23.07;;;15.73;;
6438;SDS011;3252;52.540;13.290;2022-09-11T08:05:27;22.30;;;14.30;;
6438;SDS011;3252;52.540;13.290;2022-09-11T08:07:31;22.37;;;14.33;;
6438;SDS011;3252;52.540;13.290;2022-09-11T08:09:33;19.13;;;13.90;;
6438;SDS011;3252;52.540;13.290;2022-09-11T08:11:37;21.27;;;14.00;;
6438;SDS011;3252;52.540;13.290;2022-09-11T08:13:41;18.13;;;13.20;;
6438;SDS011;3252;52.540;13.290;2022-09-11T08:15:46;22.67;;;13.43;;
6438;SDS011;3252;52.540;13.290;2022-09-11T08:17:52;19.10;;;13.77;;
6438;SDS011;3252;52.540;13.290;2022-09-11T08:19:54;19.37;;;13.73;;
6438;SDS011;3252;52.540;13.290;2022-09-11T08:21:56;21.60;;;13.53;;
6438;SDS011;3252;52.540;13.290;2022-09-11T08:24:00;17.90;;;13.17;;
6438;SDS011;3252;52.540;13.290;2022-09-11T08:26:03;22.47;;;14.27;;
6438;SDS011;3252;52.540;13.290;2022-09-11T08:28:06;42.33;;;24.47;;
6438;SDS011;3252;52.540;13.290;2022-09-11T08:30:09;28.33;;;18.57;;
6438;SDS011;3252;52.540;13.290;2022-09-11T08:32:12;20.70;;;13.30;;
6438;SDS011;3252;52.540;13.290;2022-09-11T08:34:15;18.47;;;13.67;;
6438;SDS011;3252;52.540;13.290;2022-09-11T08:36:21;25.57;;;17.00;;
6438;SDS011;3252;52.540;13.290;2022-09-11T08:38:25;19.80;;;13.03;;
6438;SDS011;3252;52.540;13.290;2022-09-11T08:40:28;17.20;;;12.40;;
6438;SDS011;3252;52.540;13.290;2022-09-11T08:42:33;22.07;;;15.30;;
6438;SDS011;3252;52.540;13.290;2022-09-11T08:44:37;56.63;;;33.23;;
6438;SDS011;3252;52.540;13.290;2022-09-11T08:47:06;37.23;;;22.13;;
6438;SDS011;3252;52.540;13.290;2022-09-11T08:49:16;45.93;;;27.43;;
6438;SDS011;3252;52.540;13.290;2022-09-11T08:51:23;21.73;;;15.73;;
6438;SDS011;3252;52.540;13.290;2022-09-11T08:53:26;20.13;;;14.23;;
6438;SDS011;3252;52.540;13.290;2022-09-11T08:55:34;19.87;;;13.67;;
6438;SDS011;3252;52.540;13.290;2022-09-11T08:57:41;22.60;;;14.73;;
6438;SDS011;3252;52.540;13.290;2022-09-11T09:00:03;20.30;;;14.23;;
6438;SDS011;3252;52.540;13.290;2022-09-11T09:02:20;19.87;;;13.17;;
6438;SDS011;3252;52.540;13.290;2022-09-11T09:04:37;18.37;;;12.40;;
6438;SDS011;3252;52.540;13.290;2022-09-11T09:06:52;20.50;;;13.30;;
6438;SDS011;3252;52.540;13.290;2022-09-11T09:09:02;21.40;;;14.93;;
6438;SDS011;3252;52.540;13.290;2022-09-11T09:11:13;25.13;;;16.00;;
6438;SDS011;3252;52.540;13.290;2022-09-11T09:13:27;20.53;;;13.07;;
6438;SDS011;3252;52.540;13.290;2022-09-11T09:15:44;24.93;;;14.40;;
6438;SDS011;3252;52.540;13.290;2022-09-11T09:17:54;23.77;;;14.77;;
6438;SDS011;3252;52.540;13.290;2022-09-11T09:20:04;22.50;;;15.20;;
6438;SDS011;3252;52.540;13.290;2022-09-11T09:22:15;20.77;;;13.30;;
6438;SDS011;3252;52.540;13.290;2022-09-11T09:24:21;17.00;;;11.43;;
6438;SDS011;3252;52.540;13.290;2022-09-11T09:26:27;20.10;;;12.60;;
6438;SDS011;3252;52.540;13.290;2022-09-11T09:28:33;17.53;;;10.97;;
6438;SDS011;3252;52.540;13.290;2022-09-11T09:30:43;16.43;;;10.97;;
6438;SDS011;3252;52.540;13.290;2022-09-11T09:32:51;20.67;;;14.67;;
6438;SDS011;3252;52.540;13.290;2022-09-11T09:34:59;18.30;;;13.63;;
6438;SDS011;3252;52.540;13.290;2022-09-11T09:37:10;15.97;;;10.20;;
6438;SDS011;3252;52.540;13.290;2022-09-11T09:39:16;14.77;;;11.27;;
6438;SDS011;3252;52.540;13.290;2022-09-11T09:41:38;14.73;;;11.13;;
6438;SDS011;3252;52.540;13.290;2022-09-11T09:44:01;17.13;;;11.20;;
6438;SDS011;3252;52.540;13.290;2022-09-11T09:46:14;17.60;;;9.93;;
6438;SDS011;3252;52.540;13.290;2022-09-11T09:48:21;12.77;;;9.53;;
6438;SDS011;3252;52.540;13.290;2022-09-11T09:50:24;15.20;;;10.27;;
6438;SDS011;3252;52.540;13.290;2022-09-11T09:52:32;12.43;;;9.40;;
6438;SDS011;3252;52.540;13.290;2022-09-11T09:54:35;12.17;;;9.10;;
6438;SDS011;3252;52.540;13.290;2022-09-11T09:56:37;12.97;;;9.50;;
6438;SDS011;3252;52.540;13.290;2022-09-11T09:58:45;14.17;;;9.90;;
6438;SDS011;3252;52.540;13.290;2022-09-11T10:00:54;13.00;;;9.47;;
6438;SDS011;3252;52.540;13.290;2022-09-11T10:02:55;11.90;;;8.53;;
6438;SDS011;3252;52.540;13.290;2022-09-11T10:05:04;15.33;;;8.80;;
6438;SDS011;3252;52.540;13.290;2022-09-11T10:07:17;13.17;;;9.40;;
6438;SDS011;3252;52.540;13.290;2022-09-11T10:09:25;12.60;;;8.87;;
6438;SDS011;3252;52.540;13.290;2022-09-11T10:11:29;13.53;;;10.53;;
6438;SDS011;3252;52.540;13.290;2022-09-11T10:13:32;19.27;;;12.33;;
6438;SDS011;3252;52.540;13.290;2022-09-11T10:15:37;15.13;;;9.03;;
6438;SDS011;3252;52.540;13.290;2022-09-11T10:17:39;12.10;;;7.77;;
6438;SDS011;3252;52.540;13.290;2022-09-11T10:19:42;17.53;;;11.67;;
6438;SDS011;3252;52.540;13.290;2022-09-11T10:21:44;17.43;;;9.33;;
6438;SDS011;3252;52.540;13.290;2022-09-11T10:23:47;13.57;;;9.67;;
6438;SDS011;3252;52.540;13.290;2022-09-11T10:25:52;15.07;;;9.60;;
6438;SDS011;3252;52.540;13.290;2022-09-11T10:27:57;14.50;;;9.07;;
6438;SDS011;3252;52.540;13.290;2022-09-11T10:30:02;13.17;;;8.77;;
6438;SDS011;3252;52.540;13.290;2022-09-11T10:32:05;12.40;;;9.63;;
6438;SDS011;3252;52.540;13.290;2022-09-11T10:34:16;11.57;;;8.83;;
6438;SDS011;3252;52.540;13.290;2022-09-11T10:36:21;11.70;;;7.97;;
6438;SDS011;3252;52.540;13.290;2022-09-11T10:38:29;17.03;;;11.17;;
6438;SDS011;3252;52.540;13.290;2022-09-11T10:40:32;11.77;;;8.50;;
6438;SDS011;3252;52.540;13.290;2022-09-11T10:42:35;14.83;;;7.80;;
6438;SDS011;3252;52.540;13.290;2022-09-11T10:44:40;13.30;;;8.80;;
6438;SDS011;3252;52.540;13.290;2022-09-11T10:46:43;12.83;;;8.97;;
6438;SDS011;3252;52.540;13.290;2022-09-11T10:48:49;13.93;;;9.50;;
6438;SDS011;3252;52.540;13.290;2022-09-11T10:50:59;12.33;;;7.13;;
6438;SDS011;3252;52.540;13.290;2022-09-11T10:53:14;13.73;;;8.10;;
6438;SDS011;3252;52.540;13.290;2022-09-11T10:55:20;20.73;;;11.60;;
6438;SDS011;3252;52.540;13.290;2022-09-11T10:57:23;12.93;;;7.60;;
6438;SDS011;3252;52.540;13.290;2022-09-11T10:59:34;10.83;;;8.37;;
6438;SDS011;3252;52.540;13.290;2022-09-11T11:01:41;12.60;;;8.87;;
6438;SDS011;3252;52.540;13.290;2022-09-11T11:03:43;10.87;;;8.33;;
6438;SDS011;3252;52.540;13.290;2022-09-11T11:05:48;9.30;;;7.47;;
6438;SDS011;3252;52.540;13.290;2022-09-11T11:08:05;10.83;;;7.67;;
6438;SDS011;3252;52.540;13.290;2022-09-11T11:10:25;12.17;;;7.33;;
6438;SDS011;3252;52.540;13.290;2022-09-11T11:12:40;12.43;;;7.67;;
6438;SDS011;3252;52.540;13.290;2022-09-11T11:14:58;12.10;;;8.20;;
6438;SDS011;3252;52.540;13.290;2022-09-11T11:17:18;9.47;;;7.53;;
6438;SDS011;3252;52.540;13.290;2022-09-11T11:19:34;9.87;;;7.70;;
6438;SDS011;3252;52.540;13.290;2022-09-11T11:21:56;14.20;;;7.80;;
6438;SDS011;3252;52.540;13.290;2022-09-11T11:24:13;9.63;;;7.27;;
6438;SDS011;3252;52.540;13.290;2022-09-11T11:26:29;10.00;;;7.63;;
6438;SDS011;3252;52.540;13.290;2022-09-11T11:28:54;10.27;;;7.27;;
6438;SDS011;3252;52.540;13.290;2022-09-11T11:31:13;11.73;;;7.30;;
6438;SDS011;3252;52.540;13.290;2022-09-11T11:33:32;11.43;;;6.43;;
6438;SDS011;3252;52.540;13.290;2022-09-11T11:35:44;9.23;;;6.60;;
6438;SDS011;3252;52.540;13.290;2022-09-11T11:37:54;7.40;;;6.13;;
6438;SDS011;3252;52.540;13.290;2022-09-11T11:40:03;8.47;;;6.03;;
6438;SDS011;3252;52.540;13.290;2022-09-11T11:42:14;8.10;;;6.00;;
6438;SDS011;3252;52.540;13.290;2022-09-11T11:44:24;8.90;;;6.03;;
6438;SDS011;3252;52.540;13.290;2022-09-11T11:46:34;10.03;;;7.00;;
6438;SDS011;3252;52.540;13.290;2022-09-11T11:48:42;10.80;;;7.13;;
6438;SDS011;3252;52.540;13.290;2022-09-11T11:50:50;8.27;;;6.43;;
6438;SDS011;3252;52.540;13.290;2022-09-11T11:53:01;7.27;;;6.23;;
6438;SDS011;3252;52.540;13.290;2022-09-11T11:55:12;9.30;;;5.63;;
6438;SDS011;3252;52.540;13.290;2022-09-11T11:57:18;11.13;;;5.70;;
6438;SDS011;3252;52.540;13.290;2022-09-11T11:59:24;8.40;;;5.33;;
6438;SDS011;3252;52.540;13.290;2022-09-11T12:01:36;7.87;;;6.30;;
6438;SDS011;3252;52.540;13.290;2022-09-11T12:03:44;7.50;;;5.40;;
6438;SDS011;3252;52.540;13.290;2022-09-11T12:05:51;7.20;;;5.20;;
6438;SDS011;3252;52.540;13.290;2022-09-11T12:07:53;7.50;;;5.53;;
6438;SDS011;3252;52.540;13.290;2022-09-11T12:09:55;9.67;;;5.60;;
6438;SDS011;3252;52.540;13.290;2022-09-11T12:12:02;7.67;;;4.73;;
6438;SDS011;3252;52.540;13.290;2022-09-11T12:14:13;7.80;;;5.10;;
6438;SDS011;3252;52.540;13.290;2022-09-11T12:16:27;6.43;;;4.83;;
6438;SDS011;3252;52.540;13.290;2022-09-11T12:18:34;8.00;;;4.67;;
6438;SDS011;3252;52.540;13.290;2022-09-11T12:20:37;11.97;;;5.07;;
6438;SDS011;3252;52.540;13.290;2022-09-11T12:22:41;6.67;;;4.90;;
6438;SDS011;3252;52.540;13.290;2022-09-11T12:24:54;8.40;;;5.00;;
6438;SDS011;3252;52.540;13.290;2022-09-11T12:32:16;6.23;;;3.87;;
6438;SDS011;3252;52.540;13.290;2022-09-11T12:34:25;5.07;;;4.13;;
6438;SDS011;3252;52.540;13.290;2022-09-11T12:36:50;6.97;;;4.37;;
6438;SDS011;3252;52.540;13.290;2022-09-11T12:38:56;5.53;;;3.60;;
6438;SDS011;3252;52.540;13.290;2022-09-11T12:41:02;6.23;;;3.83;;
6438;SDS011;3252;52.540;13.290;2022-09-11T12:43:25;6.37;;;4.00;;